Time;durP1;ratioP1;P1;durP2;ratioP2;P2;SDS_P1;SDS_P2;PMS_P1;PMS_P2;Temp;Humidity;BMP_temperature;BMP_pressure;BME280_temperature;BME280_humidity;BME280_pressure;Samples;Min_cycle;Max_cycle;Signal;HPM_P1;HPM_P2
2023/09/04 00:00:28;;;;;;;2.17;1.98;;;17.20;99.90;;;;;;5033697;28;20029;-86
2023/09/04 00:02:53;;;;;;;1.77;1.60;;;17.20;99.90;;;;;;5035211;28;20053;-86
2023/09/04 00:05:19;;;;;;;2.03;1.70;;;17.10;99.90;;;;;;5038616;28;20033;-86
2023/09/04 00:07:45;;;;;;;2.35;1.95;;;17.10;99.90;;;;;;5038022;28;20017;-85
2023/09/04 00:10:11;;;;;;;1.95;1.77;;;17.10;99.90;;;;;;5041064;28;20022;-85
2023/09/04 00:12:37;;;;;;;1.80;1.70;;;17.00;99.90;;;;;;5041596;28;20036;-85
2023/09/04 00:15:03;;;;;;;3.13;2.08;;;17.00;99.90;;;;;;5040961;28;20029;-86
2023/09/04 00:17:30;;;;;;;3.53;2.08;;;17.00;99.90;;;;;;5037976;28;20010;-85
2023/09/04 00:19:56;;;;;;;2.90;2.17;;;17.10;99.90;;;;;;5053055;28;20018;-86
2023/09/04 00:22:22;;;;;;;4.35;2.67;;;17.20;99.90;;;;;;5033533;28;20541;-85
2023/09/04 00:24:48;;;;;;;3.22;2.55;;;17.30;99.90;;;;;;5034874;28;20041;-85
2023/09/04 00:27:13;;;;;;;2.50;2.15;;;17.20;99.90;;;;;;5034335;28;20038;-85
2023/09/04 00:29:39;;;;;;;1.90;1.80;;;17.30;99.90;;;;;;5035228;28;20074;-85
2023/09/04 00:32:06;;;;;;;2.00;1.80;;;17.30;99.90;;;;;;5035305;28;20041;-85
2023/09/04 00:34:32;;;;;;;1.63;1.52;;;17.40;99.90;;;;;;5037051;28;20029;-85
2023/09/04 00:36:58;;;;;;;1.85;1.67;;;17.50;99.90;;;;;;5036596;28;20037;-86
2023/09/04 00:39:24;;;;;;;2.03;1.83;;;17.50;99.90;;;;;;5037320;28;20022;-84
2023/09/04 00:41:49;;;;;;;1.88;1.70;;;17.60;99.90;;;;;;5037508;28;20037;-85
2023/09/04 00:44:16;;;;;;;1.98;1.80;;;17.70;99.90;;;;;;5037593;28;20022;-85
2023/09/04 00:46:43;;;;;;;1.80;1.60;;;17.60;99.90;;;;;;5036877;28;20060;-85
2023/09/04 00:49:11;;;;;;;1.88;1.77;;;17.60;99.90;;;;;;5036984;28;20034;-85
2023/09/04 00:51:38;;;;;;;3.65;1.73;;;17.60;99.90;;;;;;5035826;28;20022;-85
2023/09/04 00:54:05;;;;;;;2.55;1.73;;;17.50;99.90;;;;;;5035670;28;20025;-85
2023/09/04 00:56:31;;;;;;;1.77;1.55;;;17.50;99.90;;;;;;5035458;28;20025;-86
2023/09/04 00:58:56;;;;;;;2.40;2.20;;;17.50;99.90;;;;;;5035231;28;20036;-85
2023/09/04 01:01:22;;;;;;;2.05;1.75;;;17.50;99.90;;;;;;5035206;28;20029;-86
2023/09/04 01:03:48;;;;;;;2.13;1.98;;;17.40;99.90;;;;;;5035456;28;20036;-86
2023/09/04 01:06:14;;;;;;;1.83;1.58;;;17.40;99.90;;;;;;5035860;28;20032;-85
2023/09/04 01:08:40;;;;;;;2.88;1.80;;;17.40;99.90;;;;;;5034370;28;20025;-86
2023/09/04 01:11:23;;;;;;;2.08;1.88;;;17.40;99.90;;;;;;5035398;28;20040;-86
2023/09/04 01:13:55;;;;;;;2.63;1.80;;;17.40;99.90;;;;;;5035360;28;20029;-85
2023/09/04 01:16:21;;;;;;;1.85;1.40;;;17.30;99.90;;;;;;5033955;28;20021;-86
2023/09/04 01:18:48;;;;;;;1.70;1.60;;;17.20;99.90;;;;;;5035767;28;20037;-85
2023/09/04 01:21:13;;;;;;;2.53;2.25;;;17.30;99.90;;;;;;5053924;28;20052;-85
2023/09/04 01:23:39;;;;;;;1.60;1.50;;;17.20;99.90;;;;;;5036241;28;20025;-85
2023/09/04 01:26:17;;;;;;;1.65;1.52;;;17.10;99.90;;;;;;5034788;28;20036;-85
2023/09/04 01:28:50;;;;;;;5.03;1.83;;;17.10;99.90;;;;;;5034950;28;20022;-85
2023/09/04 01:31:47;;;;;;;1.92;1.63;;;17.10;99.90;;;;;;5036414;28;20021;-85
2023/09/04 01:34:21;;;;;;;2.75;2.03;;;17.00;99.90;;;;;;5034735;28;20026;-85
2023/09/04 01:36:51;;;;;;;1.95;1.73;;;17.00;99.90;;;;;;5035005;28;20021;-86
2023/09/04 01:39:17;;;;;;;1.88;1.77;;;16.90;99.90;;;;;;5034603;28;20024;-86
2023/09/04 01:41:42;;;;;;;1.92;1.60;;;16.90;99.90;;;;;;5034241;28;20013;-85
2023/09/04 01:44:08;;;;;;;2.22;1.75;;;16.80;99.90;;;;;;5034603;28;20056;-86
2023/09/04 01:46:34;;;;;;;1.75;1.65;;;16.70;99.90;;;;;;5034330;28;20029;-86
2023/09/04 01:49:00;;;;;;;2.90;1.63;;;16.60;99.90;;;;;;5033984;28;20034;-86
2023/09/04 01:51:26;;;;;;;1.85;1.75;;;16.60;99.90;;;;;;5034160;28;20407;-86
2023/09/04 01:53:52;;;;;;;3.53;1.67;;;16.40;99.90;;;;;;5034486;28;20032;-85
2023/09/04 01:56:17;;;;;;;1.95;1.85;;;16.40;99.90;;;;;;5033894;28;20025;-86
2023/09/04 01:58:43;;;;;;;2.03;1.55;;;16.20;99.90;;;;;;5034481;28;20030;-85
2023/09/04 02:01:08;;;;;;;3.33;1.80;;;16.20;99.90;;;;;;5034733;28;20037;-86
2023/09/04 02:03:34;;;;;;;3.10;2.15;;;16.10;99.90;;;;;;5034456;28;20032;-85
2023/09/04 02:06:00;;;;;;;2.53;2.20;;;16.10;99.90;;;;;;5034510;28;20033;-86
2023/09/04 02:08:25;;;;;;;6.05;1.80;;;16.00;99.90;;;;;;5034423;28;20025;-86
2023/09/04 02:10:51;;;;;;;2.53;1.67;;;16.00;99.90;;;;;;5034641;28;20029;-86
2023/09/04 02:13:17;;;;;;;2.67;1.88;;;15.80;99.90;;;;;;5034493;28;20233;-86
2023/09/04 02:15:42;;;;;;;4.25;1.92;;;15.80;99.90;;;;;;5034110;28;20034;-86
2023/09/04 02:18:08;;;;;;;4.85;1.92;;;15.80;99.90;;;;;;5033966;28;20032;-86
2023/09/04 02:20:34;;;;;;;1.80;1.70;;;15.80;99.90;;;;;;5033598;28;20036;-86
2023/09/04 02:22:59;;;;;;;2.65;1.80;;;15.70;99.90;;;;;;5033591;28;20052;-86
2023/09/04 02:25:25;;;;;;;3.58;2.20;;;15.70;99.90;;;;;;5033747;28;20049;-86
2023/09/04 02:27:51;;;;;;;3.47;1.80;;;15.70;99.90;;;;;;5031414;28;20029;-86
2023/09/04 02:30:18;;;;;;;1.85;1.60;;;15.70;99.90;;;;;;5033693;28;20388;-85
2023/09/04 02:32:44;;;;;;;2.28;2.03;;;15.50;99.90;;;;;;5033427;28;20029;-85
2023/09/04 02:35:10;;;;;;;2.53;2.20;;;15.50;99.90;;;;;;5032990;28;20026;-85
2023/09/04 02:37:35;;;;;;;2.20;1.98;;;15.40;99.90;;;;;;5034025;28;20047;-86
2023/09/04 02:40:06;;;;;;;2.30;2.03;;;15.40;99.90;;;;;;5034303;28;20055;-86
2023/09/04 02:42:32;;;;;;;2.35;2.15;;;15.40;99.90;;;;;;5033244;28;20029;-86
2023/09/04 02:45:08;;;;;;;2.42;2.22;;;16.80;99.90;;;;;;5027937;28;20027;-85
2023/09/04 02:47:37;;;;;;;2.30;1.83;;;15.20;99.90;;;;;;5029881;28;20025;-86
2023/09/04 02:50:04;;;;;;;3.10;2.78;;;15.30;99.90;;;;;;5026809;28;20038;-86
2023/09/04 02:52:30;;;;;;;3.97;2.05;;;15.20;99.90;;;;;;5031717;28;20036;-86
2023/09/04 02:54:56;;;;;;;2.90;2.70;;;15.10;99.90;;;;;;5032377;28;20022;-86
2023/09/04 02:57:22;;;;;;;4.38;2.25;;;15.10;99.90;;;;;;5031941;28;20083;-86
2023/09/04 02:59:48;;;;;;;2.20;1.95;;;15.20;99.90;;;;;;5032161;28;20026;-86
2023/09/04 03:02:14;;;;;;;5.85;2.17;;;15.10;99.90;;;;;;5032099;28;20014;-86
2023/09/04 03:04:40;;;;;;;2.40;2.20;;;15.10;99.90;;;;;;5032058;28;20025;-86
2023/09/04 03:07:06;;;;;;;3.58;2.17;;;15.10;99.90;;;;;;5073659;23;20079;-78
2023/09/04 03:09:32;;;;;;;2.80;2.60;;;15.20;99.90;;;;;;5073837;28;20657;-77
2023/09/04 03:11:58;;;;;;;5.18;2.95;;;15.30;99.90;;;;;;5074051;28;20478;-77
2023/09/04 03:14:24;;;;;;;3.63;2.50;;;15.30;99.90;;;;;;5072952;28;20422;-77
2023/09/04 03:16:50;;;;;;;4.35;2.55;;;15.30;99.90;;;;;;5073804;28;20033;-77
2023/09/04 03:19:15;;;;;;;2.65;2.45;;;15.30;99.90;;;;;;5074679;28;20056;-77
2023/09/04 03:21:41;;;;;;;4.75;1.90;;;15.40;99.90;;;;;;5075365;28;20389;-76
2023/09/04 03:24:07;;;;;;;2.20;2.00;;;15.60;99.90;;;;;;5075498;28;20029;-77
2023/09/04 03:26:32;;;;;;;7.10;2.22;;;15.60;99.90;;;;;;5074676;28;20028;-77
2023/09/04 03:28:58;;;;;;;2.78;2.45;;;15.70;99.90;;;;;;5055163;28;20165;-77
2023/09/04 03:31:23;;;;;;;2.22;2.03;;;15.70;99.90;;;;;;5073648;28;20056;-76
2023/09/04 03:33:49;;;;;;;2.15;1.83;;;15.70;99.90;;;;;;5055577;28;20036;-76
2023/09/04 03:36:15;;;;;;;2.17;1.90;;;15.70;99.90;;;;;;5056019;28;20029;-77
2023/09/04 03:38:41;;;;;;;2.97;1.83;;;15.80;99.90;;;;;;5075082;28;20111;-78
2023/09/04 03:41:07;;;;;;;2.22;1.92;;;15.90;99.90;;;;;;5062853;28;20051;-77
2023/09/04 03:43:34;;;;;;;2.13;1.92;;;16.10;99.90;;;;;;5046787;28;20049;-77
2023/09/04 03:46:00;;;;;;;2.85;1.70;;;16.40;99.90;;;;;;5057133;28;20021;-77
2023/09/04 03:48:26;;;;;;;2.28;2.03;;;16.40;99.90;;;;;;5040658;28;20053;-77
2023/09/04 03:50:52;;;;;;;3.03;2.22;;;16.50;99.90;;;;;;5056983;28;20020;-78
2023/09/04 03:53:17;;;;;;;1.98;1.60;;;16.40;99.90;;;;;;5058765;28;20021;-77
2023/09/04 03:55:43;;;;;;;2.67;2.47;;;16.50;99.90;;;;;;5053073;28;20048;-77
2023/09/04 03:58:09;;;;;;;2.70;2.00;;;16.40;99.90;;;;;;5077700;28;20021;-75
2023/09/04 04:00:35;;;;;;;3.17;2.08;;;16.50;99.90;;;;;;5077622;28;20502;-76
2023/09/04 04:03:00;;;;;;;2.17;1.90;;;16.50;99.90;;;;;;5079433;28;20032;-76
2023/09/04 04:05:26;;;;;;;1.80;1.70;;;16.40;99.90;;;;;;5062778;28;20115;-78
2023/09/04 04:07:53;;;;;;;2.00;1.90;;;16.40;99.90;;;;;;5061232;28;20021;-78
2023/09/04 04:10:19;;;;;;;1.92;1.73;;;16.40;99.90;;;;;;5060147;28;20457;-77
2023/09/04 04:12:44;;;;;;;4.03;1.98;;;16.40;99.90;;;;;;5076994;28;20031;-77
2023/09/04 04:15:11;;;;;;;3.40;2.53;;;16.40;99.90;;;;;;5077624;28;20099;-77
2023/09/04 04:17:37;;;;;;;2.45;1.92;;;16.40;99.90;;;;;;5060073;28;20036;-80
2023/09/04 04:20:11;;;;;;;2.28;2.08;;;16.40;99.90;;;;;;5061680;28;20020;-76
2023/09/04 04:22:37;;;;;;;2.80;2.05;;;16.40;99.90;;;;;;5059802;28;20032;-76
2023/09/04 04:25:03;;;;;;;2.10;1.85;;;16.40;99.90;;;;;;5078454;28;20390;-76
2023/09/04 04:27:28;;;;;;;2.05;1.85;;;16.30;99.90;;;;;;5057775;28;20065;-78
2023/09/04 04:29:55;;;;;;;2.80;2.22;;;16.30;99.90;;;;;;5058457;28;20035;-77
2023/09/04 04:32:21;;;;;;;2.20;1.88;;;16.20;99.90;;;;;;5058562;28;20398;-77
2023/09/04 04:34:46;;;;;;;1.98;1.77;;;16.20;99.90;;;;;;5075705;28;20028;-76
2023/09/04 04:37:12;;;;;;;2.20;2.00;;;16.20;99.90;;;;;;5058396;28;20031;-77
2023/09/04 04:39:37;;;;;;;2.35;2.15;;;16.20;99.90;;;;;;5075517;28;20021;-76
2023/09/04 04:42:03;;;;;;;3.85;1.83;;;16.10;99.90;;;;;;5070224;28;20050;-78
2023/09/04 04:44:29;;;;;;;3.75;2.33;;;16.20;99.90;;;;;;5057820;28;20021;-76
2023/09/04 04:46:55;;;;;;;2.53;2.15;;;16.20;99.90;;;;;;5058096;28;20108;-77
2023/09/04 04:49:22;;;;;;;2.67;1.90;;;16.20;99.90;;;;;;5057384;28;20063;-77
2023/09/04 04:51:51;;;;;;;2.30;2.10;;;16.20;99.90;;;;;;5057971;28;20116;-77
2023/09/04 04:54:19;;;;;;;3.40;2.42;;;16.50;99.90;;;;;;5057764;28;20453;-77
2023/09/04 04:56:48;;;;;;;5.88;2.70;;;16.50;99.90;;;;;;5075745;28;20100;-77
2023/09/04 04:59:14;;;;;;;2.50;1.90;;;16.50;99.90;;;;;;5058413;28;20036;-76
2023/09/04 05:01:40;;;;;;;2.05;1.80;;;16.50;99.90;;;;;;5077177;28;20096;-76
2023/09/04 05:04:05;;;;;;;2.45;2.17;;;16.40;99.90;;;;;;5059269;28;20032;-77
2023/09/04 05:06:33;;;;;;;2.85;1.88;;;16.50;99.90;;;;;;5076614;28;20085;-77
2023/09/04 05:08:59;;;;;;;1.85;1.63;;;16.50;99.90;;;;;;5058504;28;20493;-77
2023/09/04 05:11:25;;;;;;;3.50;1.52;;;16.50;99.90;;;;;;5058780;28;20028;-77
2023/09/04 05:13:50;;;;;;;2.72;2.42;;;16.50;99.90;;;;;;5076901;28;20469;-77
2023/09/04 05:16:16;;;;;;;2.70;1.90;;;16.50;99.90;;;;;;5062437;28;20032;-77
2023/09/04 05:18:41;;;;;;;2.10;1.90;;;16.60;99.90;;;;;;5058722;28;20393;-76
2023/09/04 05:21:07;;;;;;;2.45;1.98;;;16.80;99.90;;;;;;5075833;28;20029;-77
2023/09/04 05:23:33;;;;;;;2.85;2.58;;;16.90;99.90;;;;;;5075226;28;20095;-77
2023/09/04 05:25:59;;;;;;;1.90;1.52;;;17.00;99.90;;;;;;5057201;28;20464;-78
2023/09/04 05:28:25;;;;;;;1.88;1.77;;;17.10;99.90;;;;;;5075056;28;20020;-77
2023/09/04 05:30:50;;;;;;;4.18;1.75;;;17.10;99.90;;;;;;5058184;28;20025;-77
2023/09/04 05:33:16;;;;;;;3.30;1.73;;;17.10;99.90;;;;;;5058807;28;20062;-77
2023/09/04 05:35:42;;;;;;;2.85;2.25;;;17.10;99.90;;;;;;5078052;28;20020;-77
2023/09/04 05:38:07;;;;;;;1.95;1.83;;;17.20;99.90;;;;;;5078976;28;20394;-77
2023/09/04 05:40:33;;;;;;;2.88;1.67;;;17.30;99.90;;;;;;5076353;28;20043;-77
2023/09/04 05:42:59;;;;;;;1.80;1.70;;;17.20;99.90;;;;;;5058318;28;20032;-76
2023/09/04 05:45:25;;;;;;;2.55;2.10;;;17.20;99.90;;;;;;5057389;28;20025;-77
2023/09/04 05:47:51;;;;;;;4.72;1.88;;;17.30;99.90;;;;;;5074758;28;20048;-76
2023/09/04 05:50:16;;;;;;;2.03;1.80;;;17.20;99.90;;;;;;5056898;28;20051;-78
2023/09/04 05:52:42;;;;;;;2.67;2.15;;;17.20;99.90;;;;;;5057284;28;20518;-78
2023/09/04 05:55:08;;;;;;;3.67;2.10;;;17.20;99.90;;;;;;5075817;28;20023;-78
2023/09/04 05:57:35;;;;;;;2.10;1.90;;;17.30;99.90;;;;;;5073751;28;20059;-77
2023/09/04 06:00:03;;;;;;;2.80;1.95;;;17.20;99.90;;;;;;5075940;28;20052;-80
2023/09/04 06:02:28;;;;;;;2.10;1.80;;;17.70;99.90;;;;;;5059300;28;20518;-79
2023/09/04 06:04:54;;;;;;;2.20;2.00;;;18.00;99.90;;;;;;5058732;28;20032;-78
2023/09/04 06:07:19;;;;;;;3.72;2.42;;;18.30;99.90;;;;;;5056678;28;20060;-77
2023/09/04 06:09:45;;;;;;;2.63;2.22;;;18.70;99.90;;;;;;5056768;28;20086;-77
2023/09/04 06:12:11;;;;;;;4.82;1.67;;;19.00;99.90;;;;;;5059089;28;20036;-76
2023/09/04 06:14:38;;;;;;;2.30;2.13;;;19.00;99.90;;;;;;5059039;28;20501;-76
2023/09/04 06:17:04;;;;;;;3.65;2.47;;;19.00;99.90;;;;;;5078237;28;20104;-75
2023/09/04 06:19:30;;;;;;;7.40;2.10;;;19.00;99.90;;;;;;5059912;28;20523;-76
2023/09/04 06:21:56;;;;;;;42.13;5.85;;;19.00;99.90;;;;;;5060177;28;20024;-78
2023/09/04 06:24:22;;;;;;;7.57;2.40;;;19.00;99.90;;;;;;5057540;28;20495;-77
2023/09/04 06:26:48;;;;;;;3.28;2.13;;;19.00;99.90;;;;;;5055494;28;20035;-75
2023/09/04 06:29:16;;;;;;;1.83;1.73;;;18.80;99.90;;;;;;5078627;28;20028;-75
2023/09/04 06:31:42;;;;;;;2.92;1.63;;;18.90;99.90;;;;;;5068787;28;20062;-76
2023/09/04 06:34:08;;;;;;;2.75;2.00;;;19.00;99.90;;;;;;5061043;28;20029;-76
2023/09/04 06:36:33;;;;;;;2.53;2.00;;;19.00;99.90;;;;;;5063239;28;20122;-75
2023/09/04 06:39:00;;;;;;;4.68;1.77;;;19.00;99.90;;;;;;5050742;28;20025;-76
2023/09/04 06:41:25;;;;;;;2.70;2.10;;;18.90;99.90;;;;;;5076715;28;20088;-76
2023/09/04 06:43:51;;;;;;;1.80;1.70;;;18.90;99.90;;;;;;5064749;28;20056;-76
2023/09/04 06:46:17;;;;;;;3.40;1.92;;;18.90;99.90;;;;;;5084599;28;20016;-76
2023/09/04 06:48:42;;;;;;;2.17;1.98;;;19.00;99.60;;;;;;5086554;28;20070;-76
2023/09/04 06:51:08;;;;;;;3.72;1.95;;;19.10;99.90;;;;;;5064493;28;20029;-78
2023/09/04 06:53:34;;;;;;;2.28;2.08;;;19.30;99.70;;;;;;5074600;28;20021;-77
2023/09/04 06:56:00;;;;;;;1.85;1.75;;;19.40;98.10;;;;;;5056914;28;20394;-76
2023/09/04 06:58:26;;;;;;;2.33;1.92;;;19.60;98.20;;;;;;5055196;28;20249;-77
2023/09/04 07:00:55;;;;;;;1.63;1.52;;;19.70;98.10;;;;;;5055485;28;20119;-76
2023/09/04 07:03:24;;;;;;;1.60;1.50;;;19.90;96.70;;;;;;5073092;28;20024;-77
2023/09/04 07:05:50;;;;;;;2.58;1.83;;;20.00;96.00;;;;;;5054862;28;20486;-75
2023/09/04 07:08:15;;;;;;;1.98;1.83;;;20.00;95.50;;;;;;5073683;28;20035;-77
2023/09/04 07:10:42;;;;;;;2.25;1.65;;;20.00;94.90;;;;;;5055924;28;20081;-76
2023/09/04 07:13:08;;;;;;;1.65;1.55;;;19.90;94.50;;;;;;5055474;28;20052;-78
2023/09/04 07:15:33;;;;;;;2.30;1.60;;;19.90;95.20;;;;;;5055079;28;20455;-78
2023/09/04 07:18:00;;;;;;;1.67;1.55;;;19.90;94.30;;;;;;5054847;28;20386;-77
2023/09/04 07:20:28;;;;;;;2.80;1.75;;;19.90;94.60;;;;;;5073100;28;20036;-76
2023/09/04 07:22:54;;;;;;;3.47;1.70;;;19.90;94.40;;;;;;5072773;28;20016;-76
2023/09/04 07:25:21;;;;;;;1.42;1.33;;;19.80;94.20;;;;;;5054587;28;20387;-77
2023/09/04 07:27:47;;;;;;;2.15;1.92;;;19.80;94.30;;;;;;5054213;28;20024;-77
2023/09/04 07:30:13;;;;;;;3.28;1.67;;;19.60;94.20;;;;;;5055749;28;20437;-78
2023/09/04 07:32:38;;;;;;;1.50;1.40;;;19.40;94.50;;;;;;5054525;28;20082;-79
2023/09/04 07:35:05;;;;;;;2.97;1.65;;;19.50;94.80;;;;;;5055145;28;20044;-79
2023/09/04 07:37:31;;;;;;;1.42;1.30;;;19.60;94.60;;;;;;5072716;28;20521;-78
2023/09/04 07:39:56;;;;;;;2.78;1.70;;;19.50;94.10;;;;;;5057044;28;20059;-78
2023/09/04 07:42:23;;;;;;;2.33;1.30;;;19.50;94.00;;;;;;5073135;28;20103;-77
2023/09/04 07:44:48;;;;;;;1.33;1.23;;;19.60;94.40;;;;;;5073166;28;20020;-77
2023/09/04 07:47:14;;;;;;;1.73;1.63;;;19.70;93.70;;;;;;5054430;28;20017;-77
2023/09/04 07:49:40;;;;;;;2.33;1.27;;;19.70;93.20;;;;;;5054243;28;20020;-75
2023/09/04 07:52:05;;;;;;;1.67;1.42;;;19.80;93.30;;;;;;5072947;28;20024;-77
2023/09/04 07:54:31;;;;;;;1.33;1.20;;;19.70;92.20;;;;;;5055858;28;20039;-77
2023/09/04 07:56:59;;;;;;;2.17;1.40;;;19.70;92.10;;;;;;5073538;28;20054;-76
2023/09/04 07:59:24;;;;;;;1.33;1.20;;;19.70;92.10;;;;;;5055626;28;20024;-77
2023/09/04 08:01:50;;;;;;;1.50;1.40;;;19.80;91.70;;;;;;5073628;28;20027;-78
2023/09/04 08:04:16;;;;;;;2.60;1.15;;;19.90;91.70;;;;;;5075838;28;20033;-76
2023/09/04 08:06:41;;;;;;;2.45;1.77;;;20.00;92.30;;;;;;5074920;28;20035;-77
2023/09/04 08:09:07;;;;;;;1.98;1.65;;;20.10;91.40;;;;;;5075031;28;20382;-78
2023/09/04 08:11:34;;;;;;;0.82;0.82;;;20.20;91.10;;;;;;5055966;28;20020;-78
2023/09/04 08:14:00;;;;;;;1.45;1.10;;;20.20;90.70;;;;;;5076272;28;20077;-77
2023/09/04 08:16:26;;;;;;;1.38;1.15;;;20.10;90.90;;;;;;5056380;28;20032;-78
2023/09/04 08:18:51;;;;;;;1.88;1.40;;;20.00;90.60;;;;;;5073012;28;20032;-78
2023/09/04 08:21:17;;;;;;;1.35;1.17;;;20.10;90.70;;;;;;5054543;28;20375;-78
2023/09/04 08:23:43;;;;;;;2.65;1.95;;;20.30;90.20;;;;;;5055431;28;20017;-78
2023/09/04 08:26:10;;;;;;;1.75;1.50;;;20.50;90.60;;;;;;5075468;28;20052;-77
2023/09/04 08:28:36;;;;;;;1.42;1.23;;;20.60;88.70;;;;;;5057599;28;20025;-77
2023/09/04 08:31:02;;;;;;;1.25;1.15;;;20.60;89.20;;;;;;5085250;28;20051;-77
2023/09/04 08:33:27;;;;;;;1.40;1.30;;;20.60;89.20;;;;;;5055705;28;20380;-77
2023/09/04 08:35:53;;;;;;;1.15;1.15;;;20.80;87.90;;;;;;5055255;28;20074;-78
2023/09/04 08:38:18;;;;;;;2.47;1.20;;;20.80;89.20;;;;;;5055008;28;20100;-77
2023/09/04 08:40:44;;;;;;;1.38;1.27;;;20.90;87.50;;;;;;5055312;28;20090;-77
2023/09/04 08:43:11;;;;;;;1.70;1.60;;;20.90;87.60;;;;;;5037612;28;20017;-78
2023/09/04 08:45:40;;;;;;;1.02;0.93;;;21.00;87.40;;;;;;5037033;28;20029;-77
2023/09/04 08:48:07;;;;;;;1.35;0.80;;;21.10;87.40;;;;;;5036983;28;20021;-77
2023/09/04 08:50:35;;;;;;;1.52;1.27;;;21.10;87.50;;;;;;5037287;28;20025;-78
2023/09/04 08:53:01;;;;;;;3.83;1.15;;;21.10;87.10;;;;;;5055136;28;20021;-77
2023/09/04 08:55:26;;;;;;;1.45;1.30;;;21.10;86.70;;;;;;5055269;28;20028;-78
2023/09/04 08:57:53;;;;;;;2.53;1.02;;;21.00;87.10;;;;;;5056880;28;20021;-78
2023/09/04 09:00:19;;;;;;;1.50;1.17;;;21.00;85.70;;;;;;5056452;28;20024;-78
2023/09/04 09:02:45;;;;;;;1.20;1.02;;;20.90;85.80;;;;;;5056980;28;20020;-78
2023/09/04 09:05:16;;;;;;;1.63;1.00;;;20.70;85.00;;;;;;5074755;28;20059;-77
2023/09/04 09:07:44;;;;;;;3.75;1.27;;;20.80;87.20;;;;;;5075611;22;20051;-80
2023/09/04 09:10:13;;;;;;;1.35;1.00;;;21.00;87.30;;;;;;5056757;28;20025;-80
2023/09/04 09:12:38;;;;;;;2.55;0.90;;;21.10;85.20;;;;;;5057438;28;20045;-80
2023/09/04 09:15:04;;;;;;;1.20;1.10;;;21.00;83.80;;;;;;5058197;28;20029;-80
2023/09/04 09:17:30;;;;;;;1.17;1.13;;;20.80;84.40;;;;;;5057991;28;20096;-79
2023/09/04 09:19:56;;;;;;;2.03;1.38;;;20.70;83.90;;;;;;5056890;28;20032;-80
2023/09/04 09:22:22;;;;;;;2.72;1.48;;;20.80;84.30;;;;;;5057215;28;20511;-80
2023/09/04 09:24:53;;;;;;;1.75;1.05;;;21.10;83.60;;;;;;5059240;28;20021;-80
2023/09/04 09:27:24;;;;;;;0.93;0.90;;;21.40;80.80;;;;;;5057218;28;20505;-80
2023/09/04 09:29:51;;;;;;;1.45;1.10;;;21.50;77.50;;;;;;5058998;28;20392;-79
2023/09/04 09:32:18;;;;;;;1.00;0.85;;;21.60;77.70;;;;;;5059357;28;20029;-79
2023/09/04 09:34:51;;;;;;;0.75;0.75;;;21.70;76.10;;;;;;5059525;28;20036;-80
2023/09/04 09:37:23;;;;;;;1.33;0.77;;;21.70;74.20;;;;;;5057837;28;20024;-80
2023/09/04 09:39:48;;;;;;;1.83;1.00;;;21.70;72.00;;;;;;5056873;28;20029;-78
2023/09/04 09:42:14;;;;;;;1.92;1.00;;;21.80;72.80;;;;;;5057986;28;20052;-79
2023/09/04 09:44:40;;;;;;;1.50;0.82;;;21.80;72.50;;;;;;5058934;28;20025;-78
2023/09/04 09:47:07;;;;;;;2.40;1.30;;;21.80;71.40;;;;;;5056847;28;20070;-80
2023/09/04 09:49:36;;;;;;;0.75;0.63;;;21.80;72.70;;;;;;5055643;28;20033;-79
2023/09/04 09:52:02;;;;;;;0.70;0.60;;;21.90;72.90;;;;;;5055591;28;20075;-79
2023/09/04 09:54:38;;;;;;;1.45;1.02;;;21.90;73.00;;;;;;5058574;28;20073;-80
2023/09/04 09:57:07;;;;;;;4.80;1.30;;;21.80;71.70;;;;;;5067589;28;20064;-80
2023/09/04 09:59:34;;;;;;;0.93;0.90;;;21.70;72.00;;;;;;5076701;28;20021;-79
2023/09/04 10:02:01;;;;;;;0.70;0.70;;;21.70;73.00;;;;;;5076534;28;20032;-79
2023/09/04 10:04:28;;;;;;;1.10;0.85;;;21.80;72.60;;;;;;5075471;28;20474;-79
2023/09/04 10:06:58;;;;;;;1.60;0.90;;;21.90;71.00;;;;;;5076943;28;20502;-80
2023/09/04 10:09:26;;;;;;;1.52;0.73;;;21.90;71.00;;;;;;5075471;28;20060;-80
2023/09/04 10:12:07;;;;;;;0.77;0.77;;;21.90;69.80;;;;;;5065445;28;20514;-82
2023/09/04 10:14:38;;;;;;;0.98;0.98;;;21.80;69.40;;;;;;5054897;28;20076;-83
2023/09/04 10:17:08;;;;;;;1.10;1.00;;;21.70;67.80;;;;;;5056939;28;20055;-84
2023/09/04 10:19:36;;;;;;;2.08;0.93;;;21.60;67.80;;;;;;5059575;28;20017;-82
2023/09/04 10:22:09;;;;;;;3.53;1.75;;;21.40;68.10;;;;;;5053832;28;20028;-80
2023/09/04 10:24:58;;;;;;;0.70;0.63;;;21.40;68.40;;;;;;5052955;28;20017;-83
2023/09/04 10:27:29;;;;;;;2.65;1.10;;;21.30;68.40;;;;;;5056563;28;20028;-83
2023/09/04 10:30:05;;;;;;;2.38;1.10;;;21.40;68.30;;;;;;5055306;28;20112;-81
2023/09/04 10:32:30;;;;;;;;;;;21.50;68.20;;;;;;5056189;28;20017;-85
2023/09/04 10:34:57;;;;;;;0.82;0.77;;;21.50;67.00;;;;;;5055458;28;20333;-85
2023/09/04 10:37:26;;;;;;;1.10;1.00;;;21.60;66.80;;;;;;5056067;28;20100;-85
2023/09/04 10:39:53;;;;;;;1.08;0.75;;;21.60;66.80;;;;;;5055013;28;20068;-85
2023/09/04 10:42:20;;;;;;;1.02;0.80;;;21.80;66.20;;;;;;5055115;28;20032;-85
2023/09/04 10:44:53;;;;;;;1.70;0.90;;;21.80;64.70;;;;;;5056780;28;20045;-85
2023/09/04 10:47:20;;;;;;;2.75;1.08;;;21.50;65.40;;;;;;5055944;28;20017;-85
2023/09/04 10:49:46;;;;;;;1.05;0.70;;;21.40;65.80;;;;;;5054047;28;20049;-85
2023/09/04 10:52:13;;;;;;;5.85;1.10;;;21.50;64.80;;;;;;5054835;28;20521;-86
2023/09/04 10:54:40;;;;;;;0.75;0.68;;;21.70;65.10;;;;;;5053992;28;20029;-86
2023/09/04 10:57:10;;;;;;;1.10;0.80;;;21.70;63.40;;;;;;5054446;28;20071;-84
2023/09/04 10:59:54;;;;;;;0.80;0.80;;;21.80;62.80;;;;;;5053633;28;20021;-85
2023/09/04 11:02:32;;;;;;;0.77;0.70;;;21.90;60.60;;;;;;5054082;28;20028;-84
2023/09/04 11:05:00;;;;;;;1.15;0.80;;;22.10;60.00;;;;;;5055378;28;20017;-83
2023/09/04 11:07:28;;;;;;;1.13;0.60;;;22.30;59.60;;;;;;5055497;28;20056;-84
2023/09/04 11:10:03;;;;;;;3.47;0.80;;;22.30;58.00;;;;;;5056014;28;20021;-84
2023/09/04 11:12:36;;;;;;;0.63;0.63;;;22.20;57.70;;;;;;5056014;28;20025;-84
2023/09/04 11:15:11;;;;;;;1.13;0.98;;;22.00;57.60;;;;;;5054252;28;20035;-84
2023/09/04 11:17:39;;;;;;;1.25;0.73;;;22.00;56.00;;;;;;5054025;28;20032;-84
2023/09/04 11:20:06;;;;;;;0.73;0.73;;;22.10;57.60;;;;;;5053386;28;20059;-84
2023/09/04 11:22:33;;;;;;;4.88;0.80;;;22.20;56.80;;;;;;5055606;28;20059;-83
2023/09/04 11:24:59;;;;;;;1.48;0.70;;;22.20;55.90;;;;;;5054928;28;20372;-85
2023/09/04 11:27:25;;;;;;;0.88;0.75;;;22.20;55.80;;;;;;5054886;28;20056;-86
2023/09/04 11:29:52;;;;;;;0.77;0.60;;;22.20;55.40;;;;;;5056272;28;20063;-87
2023/09/04 11:32:19;;;;;;;1.70;0.90;;;22.30;56.40;;;;;;5062366;28;20082;-86
2023/09/04 11:34:45;;;;;;;0.85;0.57;;;22.40;56.20;;;;;;5058961;28;20387;-85
2023/09/04 11:37:14;;;;;;;0.75;0.60;;;22.50;55.40;;;;;;5055065;28;20025;-85
2023/09/04 11:39:57;;;;;;;1.17;0.98;;;22.30;54.80;;;;;;5053657;28;20625;-84
2023/09/04 11:42:24;;;;;;;0.60;0.60;;;22.30;55.20;;;;;;5055293;28;20503;-85
2023/09/04 11:44:50;;;;;;;1.55;0.80;;;22.40;55.80;;;;;;5054574;28;20021;-84
2023/09/04 11:47:19;;;;;;;0.75;0.63;;;22.50;55.40;;;;;;5054688;28;20017;-85
2023/09/04 11:49:46;;;;;;;1.13;0.95;;;22.30;54.10;;;;;;5055143;28;20443;-85
2023/09/04 11:52:12;;;;;;;0.57;0.57;;;22.50;55.40;;;;;;5056077;28;20037;-86
2023/09/04 11:54:41;;;;;;;1.40;1.00;;;22.60;55.80;;;;;;5058320;28;20396;-84
2023/09/04 11:57:07;;;;;;;1.38;0.60;;;22.90;56.50;;;;;;5054445;28;20115;-86
2023/09/04 11:59:38;;;;;;;1.20;1.05;;;22.90;52.70;;;;;;5055103;28;20033;-86
2023/09/04 12:02:05;;;;;;;0.85;0.80;;;22.80;53.60;;;;;;5059829;28;20028;-85
2023/09/04 12:04:34;;;;;;;0.80;0.80;;;22.70;52.10;;;;;;5058751;28;20025;-86
2023/09/04 12:07:07;;;;;;;3.08;1.00;;;22.70;53.70;;;;;;5057266;28;20040;-85
2023/09/04 12:09:35;;;;;;;0.73;0.73;;;22.70;53.70;;;;;;5060318;28;20025;-85
2023/09/04 12:12:01;;;;;;;1.10;0.63;;;22.60;54.50;;;;;;5063706;28;20051;-84
2023/09/04 12:14:28;;;;;;;8.05;1.17;;;22.80;55.70;;;;;;5062398;28;20368;-85
2023/09/04 12:16:53;;;;;;;1.15;0.73;;;22.80;53.30;;;;;;5062183;28;20033;-85
2023/09/04 12:19:23;;;;;;;0.80;0.65;;;22.90;52.40;;;;;;5059514;28;20029;-85
2023/09/04 12:21:49;;;;;;;0.80;0.65;;;22.80;51.90;;;;;;5060228;28;20033;-85
2023/09/04 12:24:16;;;;;;;1.55;0.70;;;22.80;52.20;;;;;;5059474;28;20032;-84
2023/09/04 12:26:42;;;;;;;4.03;0.70;;;22.90;52.80;;;;;;5061077;28;20025;-85
2023/09/04 12:29:09;;;;;;;0.50;0.50;;;22.90;52.00;;;;;;5059050;28;20025;-86
2023/09/04 12:31:36;;;;;;;0.93;0.73;;;23.00;52.00;;;;;;5060372;28;20029;-84
2023/09/04 12:34:02;;;;;;;2.13;0.60;;;23.10;50.90;;;;;;5057125;28;20028;-85
2023/09/04 12:36:30;;;;;;;0.73;0.70;;;23.10;50.40;;;;;;5057606;28;20025;-86
2023/09/04 12:38:56;;;;;;;0.65;0.60;;;23.00;51.60;;;;;;5058499;28;20029;-85
2023/09/04 12:41:22;;;;;;;1.38;0.90;;;23.00;52.10;;;;;;5059159;28;20063;-85
2023/09/04 12:43:48;;;;;;;1.20;0.70;;;23.10;50.90;;;;;;5058774;28;20025;-85
2023/09/04 12:46:13;;;;;;;1.23;0.70;;;23.10;51.80;;;;;;5058661;28;20021;-86